createdAt,value
2022-09-28T00:01:36.815Z,12.00
2022-09-28T00:04:04.110Z,11.90
2022-09-28T00:06:31.546Z,11.90
2022-09-28T00:09:04.083Z,11.90
2022-09-28T00:11:33.463Z,11.90
2022-09-28T00:14:03.827Z,11.90
2022-09-28T00:16:33.798Z,11.90
2022-09-28T00:19:04.876Z,11.90
2022-09-28T00:21:36.701Z,12.00
2022-09-28T00:24:18.953Z,12.00
2022-09-28T00:26:54.170Z,12.00
2022-09-28T00:29:37.304Z,12.00
2022-09-28T00:32:11.708Z,12.00
2022-09-28T00:34:45.939Z,12.00
2022-09-28T00:37:14.613Z,12.00
2022-09-28T00:39:46.620Z,12.00
2022-09-28T00:42:25.669Z,12.00
2022-09-28T00:44:54.901Z,12.00
2022-09-28T00:47:52.001Z,12.00
2022-09-28T00:50:22.010Z,12.10
2022-09-28T00:53:15.977Z,12.00
2022-09-28T00:55:52.457Z,12.00
2022-09-28T00:58:27.490Z,12.10
2022-09-28T01:00:59.128Z,12.10
2022-09-28T01:03:28.294Z,12.00
2022-09-28T01:05:59.544Z,12.00
2022-09-28T01:08:28.465Z,12.00
2022-09-28T01:10:56.046Z,12.10
2022-09-28T01:13:32.695Z,12.00
2022-09-28T01:16:21.517Z,12.10
2022-09-28T01:19:03.867Z,12.10
2022-09-28T01:21:44.273Z,12.00
2022-09-28T01:24:41.642Z,12.00
2022-09-28T01:27:26.710Z,12.10
2022-09-28T01:30:05.709Z,12.10
2022-09-28T01:33:04.961Z,12.10
2022-09-28T01:35:53.867Z,12.10
2022-09-28T01:38:31.126Z,12.10
2022-09-28T01:41:01.051Z,12.10
2022-09-28T01:43:34.698Z,12.00
2022-09-28T01:46:21.625Z,12.00
2022-09-28T01:49:03.762Z,12.10
2022-09-28T01:51:42.444Z,12.10
2022-09-28T01:54:20.053Z,12.10
2022-09-28T01:56:52.793Z,12.00
2022-09-28T01:59:26.090Z,12.00
2022-09-28T02:02:01.794Z,12.00
2022-09-28T02:04:53.707Z,12.00
2022-09-28T02:07:31.330Z,12.00
2022-09-28T02:10:11.420Z,12.00
2022-09-28T02:13:02.746Z,12.00
2022-09-28T02:16:04.099Z,11.90
2022-09-28T02:18:34.054Z,12.00
2022-09-28T02:21:24.133Z,11.90
2022-09-28T02:24:07.267Z,11.90
2022-09-28T02:26:41.625Z,11.90
2022-09-28T02:29:13.559Z,11.90
2022-09-28T02:31:40.839Z,11.80
2022-09-28T02:34:11.119Z,11.80
2022-09-28T02:36:38.885Z,11.80
2022-09-28T02:39:16.781Z,11.80
2022-09-28T02:41:55.467Z,11.80
2022-09-28T02:44:44.596Z,11.80
2022-09-28T02:47:47.237Z,11.70
2022-09-28T02:50:33.290Z,11.70
2022-09-28T02:53:27.807Z,11.70
2022-09-28T02:56:00.887Z,11.70
2022-09-28T02:58:40.239Z,11.70
2022-09-28T03:01:09.587Z,11.70
2022-09-28T03:03:57.768Z,11.70
2022-09-28T03:06:33.697Z,11.70
2022-09-28T03:09:12.964Z,11.70
2022-09-28T03:11:47.687Z,11.70
2022-09-28T03:14:15.749Z,11.70
2022-09-28T03:16:46.632Z,11.70
2022-09-28T03:19:16.161Z,11.70
2022-09-28T03:21:49.895Z,11.70
2022-09-28T03:24:17.013Z,11.70
2022-09-28T03:26:46.488Z,11.70
2022-09-28T03:29:16.093Z,11.70
2022-09-28T03:31:45.717Z,11.70
2022-09-28T03:34:15.458Z,11.70
2022-09-28T03:36:43.016Z,11.60
2022-09-28T03:39:12.429Z,11.60
2022-09-28T03:41:44.270Z,11.60
2022-09-28T03:44:13.576Z,11.60
2022-09-28T03:46:42.838Z,11.50
2022-09-28T03:49:15.446Z,11.50
2022-09-28T03:51:42.910Z,11.50
2022-09-28T03:54:14.724Z,11.50
2022-09-28T03:56:41.946Z,11.50
2022-09-28T03:59:16.519Z,11.50
2022-09-28T04:01:43.872Z,11.40
2022-09-28T04:04:17.000Z,11.40
2022-09-28T04:06:46.640Z,11.40
2022-09-28T04:09:13.921Z,11.40
2022-09-28T04:12:02.830Z,11.40
2022-09-28T04:14:30.566Z,11.30
2022-09-28T04:16:57.805Z,11.30
2022-09-28T04:19:27.540Z,11.20
2022-09-28T04:21:54.676Z,11.20
2022-09-28T04:24:21.882Z,11.20
2022-09-28T04:26:51.372Z,11.10
2022-09-28T04:29:20.991Z,11.10
2022-09-28T04:31:52.500Z,11.00
2022-09-28T04:34:21.562Z,11.00
2022-09-28T04:36:49.955Z,11.00
2022-09-28T04:39:21.533Z,11.00
2022-09-28T04:41:49.365Z,11.00
2022-09-28T04:44:18.810Z,11.00
2022-09-28T04:46:48.477Z,11.00
2022-09-28T04:49:16.419Z,11.00
2022-09-28T04:51:43.672Z,11.00
2022-09-28T04:54:13.241Z,11.00
2022-09-28T04:56:41.190Z,11.00
2022-09-28T04:59:12.869Z,11.00
2022-09-28T05:01:42.454Z,11.00
2022-09-28T05:04:09.772Z,11.00
2022-09-28T05:06:39.028Z,11.00
2022-09-28T05:09:07.002Z,10.90
2022-09-28T05:11:36.946Z,10.90
2022-09-28T05:14:06.591Z,10.90
2022-09-28T05:16:36.069Z,10.90
2022-09-28T05:19:03.214Z,10.80
2022-09-28T05:21:35.748Z,10.80
2022-09-28T05:24:07.679Z,10.80
2022-09-28T05:26:37.500Z,10.70
2022-09-28T05:29:05.044Z,10.70
2022-09-28T05:31:36.878Z,10.70
2022-09-28T05:34:07.177Z,10.60
2022-09-28T05:36:35.690Z,10.60
2022-09-28T05:39:07.538Z,10.60
2022-09-28T05:41:34.802Z,10.50
2022-09-28T05:44:04.448Z,10.50
2022-09-28T05:46:34.040Z,10.50
2022-09-28T05:49:03.724Z,10.50
2022-09-28T05:51:31.177Z,10.50
2022-09-28T05:54:01.791Z,10.40
2022-09-28T05:56:31.318Z,10.40
2022-09-28T05:58:58.746Z,10.60
2022-09-28T06:01:28.230Z,10.60
2022-09-28T06:03:55.479Z,10.50
2022-09-28T06:06:22.611Z,10.50
2022-09-28T06:08:52.201Z,10.40
2022-09-28T06:11:21.684Z,10.40
2022-09-28T06:13:54.362Z,10.30
2022-09-28T06:16:21.909Z,10.30
2022-09-28T06:18:49.116Z,10.30
2022-09-28T06:21:16.278Z,10.30
2022-09-28T06:23:48.801Z,10.30
2022-09-28T06:26:17.003Z,10.30
2022-09-28T06:28:48.860Z,10.30
2022-09-28T06:31:16.174Z,10.30
2022-09-28T06:33:43.414Z,10.30
2022-09-28T06:36:15.275Z,10.30
2022-09-28T06:38:45.359Z,10.30
2022-09-28T06:41:12.830Z,10.30
2022-09-28T06:43:42.419Z,10.30
2022-09-28T06:46:13.829Z,10.30
2022-09-28T06:48:46.520Z,10.30
2022-09-28T06:51:13.851Z,10.30
2022-09-28T06:53:43.526Z,10.30
2022-09-28T06:56:11.474Z,10.40
2022-09-28T06:58:40.675Z,10.40
2022-09-28T07:01:12.477Z,10.40
2022-09-28T07:03:40.594Z,10.50
2022-09-28T07:06:14.236Z,10.50
2022-09-28T07:08:43.492Z,10.50
2022-09-28T07:11:14.012Z,10.60
2022-09-28T07:13:50.515Z,10.60
2022-09-28T07:16:20.625Z,10.60
2022-09-28T07:18:51.350Z,10.60
2022-09-28T07:21:28.755Z,10.70
2022-09-28T07:23:56.642Z,10.70
2022-09-28T07:26:26.670Z,10.80
2022-09-28T07:28:55.884Z,10.80
2022-09-28T07:31:25.246Z,10.80
2022-09-28T07:33:55.322Z,10.90
2022-09-28T07:36:22.919Z,10.90
2022-09-28T07:38:50.295Z,11.00
2022-09-28T07:41:22.490Z,11.00
2022-09-28T07:43:55.485Z,11.10
2022-09-28T07:46:25.112Z,11.10
2022-09-28T07:48:52.750Z,11.20
2022-09-28T07:51:21.282Z,11.20
2022-09-28T07:53:48.535Z,11.30
2022-09-28T07:56:20.750Z,11.30
2022-09-28T07:58:49.451Z,11.30
2022-09-28T08:01:21.689Z,11.40
2022-09-28T08:03:48.955Z,11.40
2022-09-28T08:06:17.719Z,11.50
2022-09-28T08:08:47.197Z,11.60
2022-09-28T08:11:16.753Z,11.60
2022-09-28T08:13:45.584Z,11.60
2022-09-28T08:16:15.171Z,11.70
2022-09-28T08:18:45.539Z,11.70
2022-09-28T08:21:36.160Z,11.80
2022-09-28T08:24:05.944Z,11.80
2022-09-28T08:26:35.369Z,11.90
2022-09-28T08:29:03.246Z,11.90
2022-09-28T08:31:31.120Z,11.90
2022-09-28T08:34:00.386Z,12.00
2022-09-28T08:36:28.377Z,12.00
2022-09-28T08:39:00.656Z,12.10
2022-09-28T08:41:53.485Z,12.10
2022-09-28T08:44:26.469Z,12.10
2022-09-28T08:47:06.487Z,12.20
2022-09-28T08:49:44.161Z,12.20
2022-09-28T08:52:18.777Z,12.30
2022-09-28T08:54:52.039Z,12.30
2022-09-28T08:57:28.113Z,12.30
2022-09-28T09:00:00.507Z,12.40
2022-09-28T09:02:34.790Z,12.40
2022-09-28T09:05:06.748Z,12.50
2022-09-28T09:08:01.195Z,12.50
2022-09-28T09:10:59.973Z,12.60
2022-09-28T09:14:01.660Z,12.60
2022-09-28T09:16:45.863Z,12.70
2022-09-28T09:19:37.066Z,12.70
2022-09-28T09:22:10.020Z,12.70
2022-09-28T09:25:08.665Z,12.80
2022-09-28T09:28:06.892Z,12.80
2022-09-28T09:30:52.770Z,12.80
2022-09-28T09:33:58.579Z,12.90
2022-09-28T09:36:35.682Z,12.90
2022-09-28T09:39:04.959Z,12.90
2022-09-28T09:41:49.880Z,13.00
2022-09-28T09:44:41.187Z,13.00
2022-09-28T09:47:16.057Z,13.10
2022-09-28T09:49:50.226Z,13.10
2022-09-28T09:52:19.743Z,13.10
2022-09-28T09:54:55.749Z,13.20
2022-09-28T09:57:44.598Z,13.20
2022-09-28T10:00:15.772Z,13.30
2022-09-28T10:02:46.027Z,13.30
2022-09-28T10:05:17.913Z,13.30
2022-09-28T10:07:56.155Z,13.30
2022-09-28T10:10:35.146Z,13.30
2022-09-28T10:13:05.365Z,13.30
2022-09-28T10:15:36.454Z,13.40
2022-09-28T10:18:14.010Z,13.40
2022-09-28T10:20:43.740Z,13.50
2022-09-28T10:23:36.381Z,13.60
2022-09-28T10:26:13.476Z,13.70
2022-09-28T10:28:47.533Z,13.70
2022-09-28T10:31:39.635Z,13.70
2022-09-28T10:34:14.706Z,13.70
2022-09-28T10:36:47.223Z,13.80
2022-09-28T10:39:31.942Z,13.80
2022-09-28T10:42:03.544Z,13.90
2022-09-28T10:44:35.258Z,13.90
2022-09-28T10:47:06.277Z,14.00
2022-09-28T10:49:47.078Z,14.10
2022-09-28T10:52:41.514Z,14.10
2022-09-28T10:55:32.232Z,14.20
2022-09-28T10:58:00.811Z,14.20
2022-09-28T11:00:43.854Z,14.20
2022-09-28T11:03:28.780Z,14.30
2022-09-28T11:06:07.960Z,14.30
2022-09-28T11:08:45.860Z,14.30
2022-09-28T11:11:21.522Z,14.30
2022-09-28T11:13:52.916Z,14.30
2022-09-28T11:16:31.333Z,14.30
2022-09-28T11:19:25.245Z,14.40
2022-09-28T11:21:54.814Z,14.40
2022-09-28T11:24:24.509Z,14.40
2022-09-28T11:26:56.571Z,14.40
2022-09-28T11:29:41.765Z,14.30
2022-09-28T11:32:15.501Z,14.30
2022-09-28T11:34:58.653Z,14.30
2022-09-28T11:37:41.760Z,14.20
2022-09-28T11:40:20.742Z,14.10
2022-09-28T11:43:00.728Z,14.00
2022-09-28T11:45:51.399Z,14.00
2022-09-28T11:48:30.158Z,13.90
2022-09-28T11:51:03.073Z,13.90
2022-09-28T11:53:46.147Z,13.90
2022-09-28T11:56:29.197Z,13.90
2022-09-28T11:59:04.035Z,13.90
2022-09-28T12:01:47.297Z,13.90
2022-09-28T12:04:29.401Z,13.90
2022-09-28T12:07:03.661Z,14.00
2022-09-28T12:09:41.459Z,14.10
2022-09-28T12:12:33.469Z,14.20
2022-09-28T12:15:26.077Z,14.20
2022-09-28T12:18:06.434Z,14.30
2022-09-28T12:20:40.050Z,14.40
2022-09-28T12:23:11.420Z,14.40
2022-09-28T12:25:48.121Z,14.50
2022-09-28T12:28:39.155Z,14.60
2022-09-28T12:31:18.034Z,14.60
2022-09-28T12:33:49.218Z,14.70
2022-09-28T12:36:40.416Z,14.80
2022-09-28T12:39:40.859Z,14.90
2022-09-28T12:42:34.118Z,15.00
2022-09-28T12:45:27.246Z,15.00
2022-09-28T12:48:13.887Z,15.10
2022-09-28T12:51:09.593Z,15.20
2022-09-28T12:53:49.059Z,15.20
2022-09-28T12:56:31.077Z,15.20
2022-09-28T12:59:40.015Z,15.30
2022-09-28T13:03:01.716Z,15.30
2022-09-28T13:05:44.298Z,15.20
2022-09-28T13:08:25.278Z,15.20
2022-09-28T13:11:15.759Z,15.10
2022-09-28T13:14:09.986Z,15.10
2022-09-28T13:17:21.628Z,15.10
2022-09-28T13:19:58.182Z,15.00
2022-09-28T13:22:44.411Z,14.90
2022-09-28T13:25:17.058Z,14.90
2022-09-28T13:27:54.453Z,14.90
2022-09-28T13:30:22.094Z,14.90
2022-09-28T13:32:56.237Z,14.90
2022-09-28T13:35:24.171Z,15.00
2022-09-28T13:38:16.506Z,15.00
2022-09-28T13:41:06.146Z,15.10
2022-09-28T13:43:54.707Z,15.10
2022-09-28T13:46:50.079Z,15.10
2022-09-28T13:49:42.062Z,15.10
2022-09-28T13:52:36.921Z,15.10
2022-09-28T13:55:23.299Z,15.10
2022-09-28T13:58:12.767Z,15.20
2022-09-28T14:01:17.409Z,15.20
2022-09-28T14:03:57.266Z,15.30
2022-09-28T14:06:32.396Z,15.30
2022-09-28T14:09:23.907Z,15.40
2022-09-28T14:12:04.768Z,15.40
2022-09-28T14:14:45.675Z,15.40
2022-09-28T14:17:22.215Z,15.50
2022-09-28T14:19:59.612Z,15.50
2022-09-28T14:22:36.787Z,15.60
2022-09-28T14:25:20.808Z,15.60
2022-09-28T14:28:16.836Z,15.60
2022-09-28T14:30:46.518Z,15.60
2022-09-28T14:33:29.285Z,15.60
2022-09-28T14:36:01.971Z,15.50
2022-09-28T14:39:04.571Z,15.50
2022-09-28T14:41:34.932Z,15.50
2022-09-28T14:44:16.418Z,15.40
2022-09-28T14:46:47.866Z,15.40
2022-09-28T14:49:17.524Z,15.40
2022-09-28T14:51:56.214Z,15.40
2022-09-28T14:54:26.581Z,15.40
2022-09-28T14:56:53.834Z,15.40
2022-09-28T14:59:35.782Z,15.40
2022-09-28T15:02:12.419Z,15.50
2022-09-28T15:04:48.987Z,15.50
2022-09-28T15:07:29.686Z,15.50
2022-09-28T15:09:58.117Z,15.40
2022-09-28T15:12:34.169Z,15.40
2022-09-28T15:15:19.567Z,15.40
2022-09-28T15:17:59.046Z,15.50
2022-09-28T15:20:40.618Z,15.50
2022-09-28T15:23:56.022Z,15.60
2022-09-28T15:26:31.112Z,15.70
2022-09-28T15:28:59.502Z,15.70
2022-09-28T15:31:28.352Z,15.70
2022-09-28T15:34:14.175Z,15.70
2022-09-28T15:36:46.933Z,15.70
2022-09-28T15:39:23.902Z,15.70
2022-09-28T15:41:54.006Z,15.60
2022-09-28T15:44:37.552Z,15.60
2022-09-28T15:47:25.605Z,15.70
2022-09-28T15:50:00.523Z,15.70
2022-09-28T15:52:46.965Z,15.60
2022-09-28T15:55:24.558Z,15.60
2022-09-28T15:58:22.992Z,15.60
2022-09-28T16:01:36.186Z,15.60
2022-09-28T16:04:45.426Z,15.60
2022-09-28T16:07:29.887Z,15.60
2022-09-28T16:10:30.491Z,15.50
2022-09-28T16:13:15.657Z,15.50
2022-09-28T16:15:43.361Z,15.50
2022-09-28T16:18:23.545Z,15.50
2022-09-28T16:20:53.470Z,15.50
2022-09-28T16:23:22.527Z,15.40
2022-09-28T16:26:03.310Z,15.40
2022-09-28T16:28:35.741Z,15.40
2022-09-28T16:31:12.476Z,15.40
2022-09-28T16:34:20.317Z,15.40
2022-09-28T16:36:52.670Z,15.40
2022-09-28T16:39:25.508Z,15.30
2022-09-28T16:41:56.029Z,15.30
2022-09-28T16:44:26.510Z,15.30
2022-09-28T16:46:55.646Z,15.30
2022-09-28T16:49:25.424Z,15.30
2022-09-28T16:51:53.261Z,15.20
2022-09-28T16:54:43.905Z,15.20
2022-09-28T16:57:13.503Z,15.20
2022-09-28T16:59:43.008Z,15.20
2022-09-28T17:05:16.716Z,15.20
2022-09-28T17:07:44.883Z,15.10
2022-09-28T17:10:33.710Z,15.10
2022-09-28T17:13:11.123Z,15.10
2022-09-28T17:15:40.013Z,15.00
2022-09-28T17:18:14.034Z,15.00
2022-09-28T17:20:44.843Z,15.00
2022-09-28T17:23:15.932Z,14.90
2022-09-28T17:25:44.166Z,14.90
2022-09-28T17:28:29.937Z,14.80
2022-09-28T17:30:59.769Z,14.80
2022-09-28T17:33:29.781Z,14.70
2022-09-28T17:36:05.148Z,14.60
2022-09-28T17:38:32.445Z,14.60
2022-09-28T17:41:04.457Z,14.50
2022-09-28T17:43:31.645Z,14.50
2022-09-28T17:46:10.767Z,14.40
2022-09-28T17:48:37.930Z,14.40
2022-09-28T17:51:07.280Z,14.30
2022-09-28T17:53:34.395Z,14.30
2022-09-28T17:56:03.933Z,14.20
2022-09-28T17:58:31.083Z,14.20
2022-09-28T18:01:00.462Z,14.20
2022-09-28T18:03:30.083Z,14.10
2022-09-28T18:06:05.009Z,14.10
2022-09-28T18:08:34.872Z,14.00
2022-09-28T18:11:04.411Z,14.00
2022-09-28T18:13:31.774Z,13.90
2022-09-28T18:16:01.183Z,13.90
2022-09-28T18:18:28.516Z,13.80
2022-09-28T18:20:59.751Z,13.80
2022-09-28T18:23:29.360Z,13.70
2022-09-28T18:25:56.523Z,13.70
2022-09-28T18:28:23.711Z,13.70
2022-09-28T18:30:53.736Z,13.60
2022-09-28T18:33:23.238Z,13.60
2022-09-28T18:35:54.793Z,13.50
2022-09-28T18:38:24.393Z,13.50
2022-09-28T18:40:53.382Z,13.40
2022-09-28T18:43:23.049Z,13.40
2022-09-28T18:45:50.283Z,13.30
2022-09-28T18:48:17.519Z,13.30
2022-09-28T18:50:49.141Z,13.30
2022-09-28T18:53:17.786Z,13.20
2022-09-28T18:55:49.760Z,13.20
2022-09-28T18:58:19.464Z,13.20
2022-09-28T19:00:46.604Z,13.10
2022-09-28T19:03:14.472Z,13.10
2022-09-28T19:05:47.139Z,13.00
2022-09-28T19:08:14.293Z,13.00
2022-09-28T19:10:41.587Z,13.00
2022-09-28T19:13:13.369Z,12.90
2022-09-28T19:15:40.585Z,12.90
2022-09-28T19:18:10.044Z,12.80
2022-09-28T19:20:39.265Z,12.80
2022-09-28T19:23:08.766Z,12.80
2022-09-28T19:25:38.387Z,12.70
2022-09-28T19:28:07.962Z,12.70
2022-09-28T19:30:37.455Z,12.70
2022-09-28T19:33:04.642Z,12.70
2022-09-28T19:35:31.849Z,12.70
2022-09-28T19:38:03.672Z,12.60
2022-09-28T19:40:36.938Z,12.60
2022-09-28T19:43:06.385Z,12.60
2022-09-28T19:45:35.487Z,12.50
2022-09-28T19:48:03.340Z,12.50
2022-09-28T19:50:32.974Z,12.50
2022-09-28T19:53:04.190Z,12.50
2022-09-28T19:55:36.257Z,12.40
2022-09-28T19:58:04.143Z,12.40
2022-09-28T20:00:33.615Z,12.40
2022-09-28T20:03:00.914Z,12.30
2022-09-28T20:05:28.075Z,12.30
2022-09-28T20:07:57.517Z,12.30
2022-09-28T20:10:27.426Z,12.30
2022-09-28T20:12:59.137Z,12.30
2022-09-28T20:15:26.708Z,12.20
2022-09-28T20:17:54.125Z,12.20
2022-09-28T20:20:23.746Z,12.20
2022-09-28T20:22:54.080Z,12.10
2022-09-28T20:25:21.401Z,12.10
2022-09-28T20:27:50.614Z,12.10
2022-09-28T20:30:20.787Z,12.10
2022-09-28T20:32:49.632Z,12.10
2022-09-28T20:35:30.452Z,12.00
2022-09-28T20:38:07.834Z,12.00
2022-09-28T20:40:36.570Z,11.90
2022-09-28T20:43:07.780Z,11.90
2022-09-28T20:45:37.180Z,11.90
2022-09-28T20:48:06.363Z,11.90
2022-09-28T20:50:34.032Z,11.90
2022-09-28T20:53:04.144Z,11.80
2022-09-28T20:55:33.767Z,11.80
2022-09-28T20:58:06.450Z,11.80
2022-09-28T21:00:34.388Z,11.70
2022-09-28T21:03:03.880Z,11.70
2022-09-28T21:05:38.645Z,11.60
2022-09-28T21:08:08.162Z,11.60
2022-09-28T21:10:39.855Z,11.60
2022-09-28T21:13:08.801Z,11.60
2022-09-28T21:15:35.942Z,11.50
2022-09-28T21:18:03.150Z,11.50
2022-09-28T21:20:30.320Z,11.40
2022-09-28T21:22:57.487Z,11.40
2022-09-28T21:25:27.674Z,11.40
2022-09-28T21:27:54.793Z,11.40
2022-09-28T21:30:21.987Z,11.30
2022-09-28T21:32:51.744Z,11.30
2022-09-28T21:35:18.906Z,11.20
2022-09-28T21:37:48.411Z,11.20
2022-09-28T21:40:18.094Z,11.20
2022-09-28T21:42:45.281Z,11.20
2022-09-28T21:45:15.033Z,11.20
2022-09-28T21:47:47.589Z,11.10
2022-09-28T21:50:15.040Z,11.10
2022-09-28T21:52:44.323Z,11.10
2022-09-28T21:55:11.410Z,11.10
2022-09-28T21:57:46.020Z,11.00
2022-09-28T22:00:16.310Z,11.00
2022-09-28T22:02:44.056Z,11.00
2022-09-28T22:05:16.327Z,11.00
2022-09-28T22:07:44.190Z,10.90
2022-09-28T22:10:17.691Z,10.90
2022-09-28T22:12:47.187Z,10.90
2022-09-28T22:15:16.618Z,10.80
2022-09-28T22:17:44.477Z,10.80
2022-09-28T22:20:15.843Z,10.80
2022-09-28T22:22:56.355Z,10.80
2022-09-28T22:25:25.632Z,10.80
2022-09-28T22:27:53.259Z,10.70
2022-09-28T22:30:20.378Z,10.70
2022-09-28T22:32:49.961Z,10.70
2022-09-28T22:35:17.169Z,10.70
2022-09-28T22:37:46.481Z,10.60
2022-09-28T22:40:20.833Z,10.60
2022-09-28T22:42:51.081Z,10.60
2022-09-28T22:45:23.105Z,10.60
2022-09-28T22:47:52.479Z,10.50
2022-09-28T22:50:26.520Z,10.50
2022-09-28T22:52:56.285Z,10.50
2022-09-28T22:55:33.382Z,10.50
2022-09-28T22:58:01.638Z,10.50
2022-09-28T23:00:30.153Z,10.40
2022-09-28T23:02:59.652Z,10.40
2022-09-28T23:05:26.822Z,10.40
2022-09-28T23:07:56.267Z,10.40
2022-09-28T23:10:44.628Z,10.30
2022-09-28T23:13:14.261Z,10.30
2022-09-28T23:15:41.885Z,10.30
2022-09-28T23:18:11.606Z,10.30
2022-09-28T23:20:38.747Z,10.20
2022-09-28T23:23:05.833Z,10.20
2022-09-28T23:25:35.498Z,10.20
2022-09-28T23:28:04.783Z,10.20
2022-09-28T23:30:36.545Z,10.20
2022-09-28T23:33:03.753Z,10.10
2022-09-28T23:35:30.848Z,10.10
2022-09-28T23:37:57.953Z,10.10
2022-09-28T23:40:27.613Z,10.10
2022-09-28T23:42:57.283Z,10.00
2022-09-28T23:45:27.081Z,10.00
2022-09-28T23:47:58.948Z,10.00
2022-09-28T23:50:28.331Z,10.00
2022-09-28T23:52:57.550Z,10.00
2022-09-28T23:55:26.811Z,10.00
2022-09-28T23:57:55.621Z,9.90
